Time;durP1;ratioP1;P1;durP2;ratioP2;P2;SDS_P1;SDS_P2;PMS_P1;PMS_P2;Temp;Humidity;BMP_temperature;BMP_pressure;BME280_temperature;BME280_humidity;BME280_pressure;Samples;Min_cycle;Max_cycle;Signal;HPM_P1;HPM_P2
2022/08/27 00:00:46;;;;;;;11.82;3.60;;;;;;;28.00;35.13;98075.03;4485402;32;20239;-84
2022/08/27 00:03:12;;;;;;;12.88;3.42;;;;;;;27.96;35.08;98071.09;4486537;31;20092;-84
2022/08/27 00:05:38;;;;;;;12.82;3.20;;;;;;;27.95;35.31;98068.59;4488156;31;20096;-84
2022/08/27 00:08:04;;;;;;;10.35;3.03;;;;;;;27.93;35.59;98076.09;4488210;31;20131;-85
2022/08/27 00:10:31;;;;;;;10.20;3.50;;;;;;;27.90;35.67;98074.66;4488284;31;20100;-84
2022/08/27 00:12:56;;;;;;;10.73;3.07;;;;;;;27.93;35.63;98073.41;4488116;31;20155;-84
2022/08/27 00:15:23;;;;;;;11.15;3.40;;;;;;;27.85;35.22;98079.84;4488185;31;20443;-85
2022/08/27 00:17:48;;;;;;;15.60;3.72;;;;;;;27.83;35.34;98069.25;4487794;31;20364;-84
2022/08/27 00:20:17;;;;;;;13.60;3.72;;;;;;;27.80;35.33;98076.97;4487811;31;20151;-85
2022/08/27 00:22:42;;;;;;;11.35;3.40;;;;;;;27.82;34.88;98078.41;4487791;32;20087;-85
2022/08/27 00:25:09;;;;;;;13.60;3.90;;;;;;;27.65;35.10;98077.19;4487754;31;20114;-85
2022/08/27 00:27:35;;;;;;;12.80;3.90;;;;;;;27.62;35.12;98080.31;4487728;31;20440;-84
2022/08/27 00:30:01;;;;;;;14.38;3.45;;;;;;;27.68;35.15;98075.91;4487887;31;20097;-84
2022/08/27 00:32:27;;;;;;;15.02;4.20;;;;;;;27.70;35.17;98081.94;4487760;31;20111;-84
2022/08/27 00:34:52;;;;;;;13.13;4.12;;;;;;;27.70;34.98;98071.97;4487737;31;20076;-85
2022/08/27 00:37:18;;;;;;;10.75;3.25;;;;;;;27.65;34.82;98078.00;4487583;31;20148;-85
2022/08/27 00:39:44;;;;;;;13.18;3.55;;;;;;;27.65;34.72;98069.88;4487719;31;20160;-84
2022/08/27 00:42:09;;;;;;;11.75;3.45;;;;;;;27.56;34.85;98073.03;4487636;31;20100;-84
2022/08/27 00:44:35;;;;;;;17.12;3.37;;;;;;;27.67;34.92;98077.81;4487651;31;20097;-84
2022/08/27 00:47:12;;;;;;;16.67;3.25;;;;;;;27.63;34.70;98085.50;4487641;31;20130;-84
2022/08/27 00:49:44;;;;;;;11.52;3.20;;;;;;;27.57;34.76;98080.94;4487624;31;20561;-85
2022/08/27 00:52:32;;;;;;;12.15;3.12;;;;;;;27.43;34.93;98082.00;4473232;32;20152;-85
2022/08/27 00:55:06;;;;;;;12.60;3.12;;;;;;;27.56;35.18;98076.56;4486481;32;20088;-85
2022/08/27 00:57:34;;;;;;;13.10;3.80;;;;;;;27.57;35.13;98077.41;4486462;32;20165;-84
2022/08/27 00:59:59;;;;;;;11.90;3.78;;;;;;;27.55;35.29;98080.31;4486334;32;20455;-84
2022/08/27 01:02:29;;;;;;;11.02;3.47;;;;;;;27.57;34.93;98086.34;4486329;32;20111;-85
2022/08/27 01:04:58;;;;;;;11.27;3.22;;;;;;;27.54;35.08;98094.06;4487585;31;20095;-85
2022/08/27 01:07:25;;;;;;;13.00;3.45;;;;;;;27.37;35.37;98093.66;4486399;32;20206;-84
2022/08/27 01:09:51;;;;;;;12.18;3.28;;;;;;;27.45;35.59;98096.97;4487483;31;20474;-85
2022/08/27 01:12:16;;;;;;;11.52;3.70;;;;;;;27.46;37.05;98103.22;4486263;32;20185;-85
2022/08/27 01:14:43;;;;;;;11.50;3.60;;;;;;;27.37;38.24;98109.88;4487333;31;20454;-85
2022/08/27 01:17:09;;;;;;;12.07;3.60;;;;;;;27.24;38.84;98111.53;4487368;31;20209;-84
2022/08/27 01:19:43;;;;;;;14.00;3.37;;;;;;;27.14;38.75;98105.69;4486612;32;20131;-84
2022/08/27 01:22:26;;;;;;;11.73;3.50;;;;;;;27.15;38.58;98107.34;4487650;31;20110;-85
2022/08/27 01:24:54;;;;;;;11.00;3.20;;;;;;;27.12;38.24;98104.22;4487516;31;20382;-84
2022/08/27 01:27:23;;;;;;;12.80;3.47;;;;;;;27.05;38.10;98102.34;4486266;32;20112;-84
2022/08/27 01:29:49;;;;;;;19.40;3.85;;;;;;;27.03;37.96;98100.91;4487417;31;20157;-84
2022/08/27 01:32:18;;;;;;;13.93;3.60;;;;;;;26.96;37.59;98091.94;4487164;31;20484;-84
2022/08/27 01:34:44;;;;;;;11.00;3.50;;;;;;;26.91;37.11;98102.53;4487459;31;20104;-85
2022/08/27 01:37:11;;;;;;;14.82;3.72;;;;;;;26.94;37.07;98102.94;4487295;31;20100;-84
2022/08/27 01:39:40;;;;;;;13.07;3.73;;;;;;;26.99;36.61;98095.06;4487575;31;20108;-84
2022/08/27 01:42:09;;;;;;;11.85;4.03;;;;;;;26.84;37.01;98094.41;4487455;31;20180;-84
2022/08/27 01:45:14;;;;;;;12.90;3.62;;;;;;;26.87;36.66;98100.25;4487485;31;20114;-84
2022/08/27 01:47:40;;;;;;;12.30;3.50;;;;;;;27.03;36.86;98095.50;4480306;32;20097;-84
2022/08/27 01:50:09;;;;;;;14.27;3.47;;;;;;;26.87;37.34;98104.81;4487526;31;20162;-84
2022/08/27 01:52:34;;;;;;;14.80;3.40;;;;;;;26.98;37.33;98108.78;4485966;32;20083;-84
2022/08/27 01:55:00;;;;;;;14.20;3.28;;;;;;;26.98;36.61;98108.78;4487088;31;20099;-85
2022/08/27 01:57:26;;;;;;;13.15;3.10;;;;;;;26.98;36.72;98111.47;4486162;32;20128;-84
2022/08/27 01:59:51;;;;;;;14.05;4.05;;;;;;;27.01;36.92;98102.97;4486919;31;20127;-84
2022/08/27 02:02:17;;;;;;;10.73;3.42;;;;;;;27.03;37.05;98100.91;4487098;31;20140;-84
2022/08/27 02:04:43;;;;;;;10.77;3.55;;;;;;;26.68;36.88;98118.06;4487072;31;20141;-84
2022/08/27 02:07:10;;;;;;;11.57;3.20;;;;;;;26.93;36.63;98104.00;4487125;31;20104;-84
2022/08/27 02:09:36;;;;;;;9.07;3.40;;;;;;;26.96;36.98;98113.56;4487160;31;20092;-84
2022/08/27 02:12:02;;;;;;;9.18;3.55;;;;;;;27.01;37.03;98111.09;4486981;31;20462;-85
2022/08/27 02:14:28;;;;;;;11.75;3.30;;;;;;;27.02;37.10;98107.31;4485824;32;20093;-84
2022/08/27 02:16:54;;;;;;;11.52;4.07;;;;;;;26.99;36.83;98110.47;4486984;31;20089;-84
2022/08/27 02:19:20;;;;;;;13.62;3.47;;;;;;;26.99;36.73;98105.88;4485883;32;20142;-84
2022/08/27 02:21:46;;;;;;;12.02;3.60;;;;;;;26.91;36.97;98108.78;4487067;31;20076;-84
2022/08/27 02:24:11;;;;;;;12.45;3.47;;;;;;;26.84;37.15;98106.06;4486934;31;20129;-85
2022/08/27 02:26:36;;;;;;;16.85;3.72;;;;;;;26.93;37.19;98098.59;4486113;31;20092;-84
2022/08/27 02:29:02;;;;;;;11.73;3.78;;;;;;;26.94;37.54;98099.41;4486867;31;20096;-84
2022/08/27 02:31:28;;;;;;;11.73;3.50;;;;;;;26.94;37.61;98097.53;4486708;31;20577;-85
2022/08/27 02:33:53;;;;;;;18.75;3.97;;;;;;;26.99;37.73;98097.78;4486882;31;20125;-84
2022/08/27 02:36:19;;;;;;;12.90;3.50;;;;;;;26.62;37.59;98094.59;4486854;31;20149;-84
2022/08/27 02:38:44;;;;;;;12.73;3.55;;;;;;;26.79;37.46;98092.34;4486847;31;20382;-85
2022/08/27 02:41:10;;;;;;;13.68;4.00;;;;;;;26.78;37.59;98096.06;4486840;31;20376;-85
2022/08/27 02:43:35;;;;;;;12.25;3.35;;;;;;;26.80;37.53;98091.28;4486662;31;20120;-85
2022/08/27 02:46:01;;;;;;;10.45;3.95;;;;;;;26.84;37.72;98091.72;4486713;31;20089;-84
2022/08/27 02:48:27;;;;;;;11.63;3.20;;;;;;;26.81;37.76;98092.97;4486772;32;20145;-85
2022/08/27 02:50:53;;;;;;;12.37;3.08;;;;;;;26.84;38.05;98091.72;4486410;31;20140;-85
2022/08/27 02:53:19;;;;;;;9.15;3.10;;;;;;;26.83;38.21;98090.03;4486632;31;20096;-84
2022/08/27 02:55:46;;;;;;;11.73;3.45;;;;;;;26.82;38.10;98091.09;4485410;32;20108;-85
2022/08/27 02:58:15;;;;;;;12.93;4.00;;;;;;;26.82;38.19;98093.78;4486680;31;20669;-84
2022/08/27 03:00:41;;;;;;;15.07;4.15;;;;;;;26.79;38.19;98095.03;4486417;31;20094;-85
2022/08/27 03:03:09;;;;;;;13.55;3.72;;;;;;;26.77;38.01;98096.25;4486417;31;20119;-85
2022/08/27 03:05:35;;;;;;;13.18;3.75;;;;;;;26.74;37.95;98096.69;4486567;31;20164;-85
2022/08/27 03:08:02;;;;;;;12.32;3.33;;;;;;;26.65;38.01;98094.16;4486416;31;20104;-84
2022/08/27 03:10:28;;;;;;;13.68;3.25;;;;;;;26.60;37.74;98096.66;4485032;32;20096;-84
2022/08/27 03:12:54;;;;;;;12.93;3.15;;;;;;;26.67;37.95;98093.97;4486407;31;20482;-84
2022/08/27 03:15:19;;;;;;;13.75;3.40;;;;;;;26.68;38.12;98090.22;4485061;32;20109;-85
2022/08/27 03:20:29;;;;;;;12.45;3.30;;;;;;;26.67;38.29;98094.78;4486180;32;20118;-84
2022/08/27 03:22:55;;;;;;;13.38;3.78;;;;;;;26.68;38.37;98099.16;4486194;32;20089;-84
2022/08/27 03:25:20;;;;;;;10.02;3.37;;;;;;;26.66;38.63;98097.72;4486110;31;20146;-84
2022/08/27 03:27:46;;;;;;;11.45;3.10;;;;;;;26.65;38.46;98098.72;4486082;32;20116;-84
2022/08/27 03:30:14;;;;;;;12.20;3.42;;;;;;;26.64;38.40;98095.22;4486137;31;20092;-84
2022/08/27 03:32:41;;;;;;;12.93;3.28;;;;;;;26.62;38.36;98093.75;4485992;31;20556;-84
2022/08/27 03:35:07;;;;;;;10.52;3.65;;;;;;;26.65;38.29;98093.34;4486053;32;20100;-85
2022/08/27 03:37:33;;;;;;;9.88;3.67;;;;;;;26.61;38.53;98094.78;4486077;31;20410;-84
2022/08/27 03:39:58;;;;;;;11.75;3.60;;;;;;;26.58;38.57;98096.00;4488442;31;20092;-84
2022/08/27 03:42:24;;;;;;;12.93;3.83;;;;;;;26.59;38.53;98096.84;4488453;31;20115;-84
2022/08/27 03:44:49;;;;;;;12.07;3.78;;;;;;;26.57;38.27;98088.91;4488187;31;20103;-84
2022/08/27 03:47:15;;;;;;;12.07;3.72;;;;;;;26.57;37.99;98094.31;4488270;31;20076;-84
2022/08/27 03:49:41;;;;;;;12.18;3.58;;;;;;;26.58;37.90;98095.13;4488296;31;20088;-84
2022/08/27 03:52:07;;;;;;;15.18;3.85;;;;;;;26.57;37.62;98090.78;4488157;32;20118;-84
2022/08/27 03:54:39;;;;;;;12.93;3.55;;;;;;;26.56;37.20;98098.06;4488272;31;20096;-84
2022/08/27 03:57:05;;;;;;;10.93;3.58;;;;;;;26.56;37.11;98083.72;4488242;31;20092;-84
2022/08/27 03:59:30;;;;;;;10.98;3.55;;;;;;;26.58;37.09;98089.75;4487844;31;20406;-85
2022/08/27 04:01:56;;;;;;;14.40;3.67;;;;;;;26.57;36.92;98093.50;4487982;31;20116;-83
2022/08/27 04:04:25;;;;;;;10.07;3.30;;;;;;;26.48;36.74;98096.37;4487988;32;20093;-86
2022/08/27 04:06:50;;;;;;;9.38;3.40;;;;;;;26.55;36.79;98093.69;4488025;31;20120;-84
2022/08/27 04:09:17;;;;;;;12.80;3.17;;;;;;;26.67;37.21;98091.25;4487810;31;20103;-83
2022/08/27 04:11:42;;;;;;;11.00;3.30;;;;;;;26.65;36.63;98104.97;4487851;31;20145;-84
2022/08/27 04:14:08;;;;;;;11.32;3.65;;;;;;;26.69;36.54;98094.59;4487864;32;20100;-84
2022/08/27 04:16:34;;;;;;;13.90;3.78;;;;;;;26.72;36.81;98088.78;4487905;31;20092;-84
2022/08/27 04:19:00;;;;;;;11.73;3.70;;;;;;;26.74;36.76;98096.69;4486744;32;20104;-84
2022/08/27 04:21:25;;;;;;;12.40;3.40;;;;;;;26.71;35.76;98097.91;4487816;31;20360;-84
2022/08/27 04:23:51;;;;;;;11.77;3.47;;;;;;;26.78;35.51;98095.25;4487760;31;20447;-84
2022/08/27 04:26:17;;;;;;;10.93;3.50;;;;;;;26.85;35.38;98093.41;4487857;31;20149;-84
2022/08/27 04:28:42;;;;;;;14.82;3.53;;;;;;;26.94;35.33;98096.72;4487747;31;20135;-84
2022/08/27 04:31:08;;;;;;;11.95;3.45;;;;;;;26.99;35.20;98092.38;4487673;31;20328;-84
2022/08/27 04:33:34;;;;;;;12.80;3.30;;;;;;;27.09;34.92;98096.53;4486547;32;20127;-84
2022/08/27 04:36:06;;;;;;;10.40;3.17;;;;;;;27.12;34.55;98091.56;4486546;32;20113;-85
2022/08/27 04:38:32;;;;;;;11.45;3.80;;;;;;;27.25;34.46;98093.44;4487959;32;20110;-85
2022/08/27 04:43:42;;;;;;;11.65;3.62;;;;;;;27.41;34.50;98095.75;4487742;32;20165;-84
2022/08/27 04:46:07;;;;;;;12.98;3.37;;;;;;;27.52;34.41;98096.97;4486412;32;20112;-86
2022/08/27 04:48:33;;;;;;;13.23;3.67;;;;;;;27.63;34.43;98090.91;4487267;31;20435;-85
2022/08/27 04:50:59;;;;;;;10.93;3.40;;;;;;;27.68;34.31;98089.44;4487407;31;20089;-95
2022/08/27 04:53:25;;;;;;;11.55;3.42;;;;;;;27.74;34.14;98089.47;4487696;31;20451;-93
2022/08/27 04:55:52;;;;;;;9.45;3.53;;;;;;;27.78;34.32;98084.47;4487752;31;20376;-84
2022/08/27 04:58:19;;;;;;;12.88;3.33;;;;;;;27.89;34.46;98093.81;4487607;31;20150;-84
2022/08/27 05:01:03;;;;;;;10.77;3.12;;;;;;;27.98;34.74;98093.38;4487481;31;20500;-84
2022/08/27 05:03:28;;;;;;;9.98;3.33;;;;;;;28.10;34.80;98093.53;4487657;31;20161;-84
2022/08/27 05:05:59;;;;;;;10.60;3.75;;;;;;;28.09;34.52;98094.59;4487561;31;20124;-84
2022/08/27 05:08:24;;;;;;;9.57;3.62;;;;;;;28.11;35.67;98102.53;4487582;31;20207;-84
2022/08/27 05:10:50;;;;;;;9.82;3.40;;;;;;;28.17;35.88;98094.34;4487456;31;20163;-84
2022/08/27 05:13:17;;;;;;;11.27;4.07;;;;;;;28.11;34.49;98091.69;4486223;32;20368;-84
2022/08/27 05:15:43;;;;;;;14.35;3.45;;;;;;;28.29;33.15;98097.22;4487585;31;20372;-84
2022/08/27 05:18:08;;;;;;;13.20;3.65;;;;;;;28.38;34.66;98103.25;4487464;31;20110;-84
2022/08/27 05:20:41;;;;;;;11.02;3.47;;;;;;;28.55;35.16;98100.88;4487314;31;20116;-84
2022/08/27 05:23:07;;;;;;;10.40;3.58;;;;;;;28.62;33.43;98101.69;4487508;31;20096;-84
2022/08/27 05:25:37;;;;;;;13.45;3.35;;;;;;;28.76;33.57;98097.88;4487342;31;20138;-84
2022/08/27 05:28:02;;;;;;;10.88;3.33;;;;;;;28.89;33.50;98098.81;4487418;31;20451;-84
2022/08/27 05:30:28;;;;;;;12.73;3.92;;;;;;;29.01;32.04;98105.19;4486013;32;20087;-84
2022/08/27 05:32:53;;;;;;;13.10;3.58;;;;;;;29.10;32.50;98098.47;4487315;31;20095;-84
2022/08/27 05:35:18;;;;;;;12.27;3.40;;;;;;;29.23;31.71;98097.56;4487341;31;20488;-84
2022/08/27 05:37:44;;;;;;;11.68;3.55;;;;;;;28.56;33.97;98103.37;4487263;31;20107;-84
2022/08/27 05:40:10;;;;;;;12.43;3.58;;;;;;;29.12;33.92;98098.25;4487331;31;20084;-85
2022/08/27 05:42:35;;;;;;;10.80;3.78;;;;;;;29.24;32.06;98099.22;4487289;32;20105;-84
2022/08/27 05:45:01;;;;;;;15.43;3.80;;;;;;;29.43;32.05;98102.00;4486378;32;20944;-84
2022/08/27 05:47:26;;;;;;;10.82;3.42;;;;;;;29.57;31.55;98098.09;4482057;31;155270;-84
2022/08/27 05:49:52;;;;;;;9.65;3.20;;;;;;;29.53;32.08;98097.72;4486777;32;20084;-85
2022/08/27 05:52:18;;;;;;;11.10;3.42;;;;;;;29.67;32.95;98097.59;4486265;32;20679;-85
2022/08/27 05:54:43;;;;;;;14.23;3.80;;;;;;;29.76;33.18;98099.81;4487280;31;20092;-85
2022/08/27 05:57:09;;;;;;;14.45;3.45;;;;;;;29.81;30.32;98095.63;4487398;32;20096;-85
2022/08/27 06:02:19;;;;;;;11.85;3.35;;;;;;;30.09;30.87;98103.25;4486303;32;20126;-84
2022/08/27 06:04:45;;;;;;;10.55;3.47;;;;;;;30.17;30.35;98100.22;4487118;31;20097;-84
2022/08/27 06:07:11;;;;;;;11.60;3.58;;;;;;;30.10;29.04;98100.31;4487094;31;20088;-85
2022/08/27 06:09:37;;;;;;;11.20;3.72;;;;;;;29.99;29.83;98098.34;4486998;31;20140;-85
2022/08/27 06:12:03;;;;;;;10.40;3.63;;;;;;;30.23;29.68;98106.62;4487048;31;20156;-85
2022/08/27 06:14:28;;;;;;;11.18;3.87;;;;;;;30.22;28.92;98103.09;4486992;31;20093;-84
2022/08/27 06:16:54;;;;;;;11.45;3.55;;;;;;;30.19;28.98;98104.38;4486999;31;20084;-85
2022/08/27 06:19:20;;;;;;;11.60;3.55;;;;;;;30.23;29.89;98106.62;4485659;32;20107;-85
2022/08/27 06:21:46;;;;;;;12.73;3.80;;;;;;;29.77;30.05;98106.94;4487003;32;20395;-85
2022/08/27 06:24:12;;;;;;;8.82;3.50;;;;;;;29.89;30.52;98107.00;4472904;32;20112;-85
2022/08/27 06:26:39;;;;;;;10.07;3.37;;;;;;;30.27;29.92;98105.97;4487001;31;20084;-85
2022/08/27 06:29:06;;;;;;;10.88;3.50;;;;;;;30.62;28.72;98108.06;4486996;31;20137;-85
2022/08/27 06:31:34;;;;;;;11.73;3.90;;;;;;;30.83;29.23;98111.31;4486683;31;20089;-85
2022/08/27 06:34:00;;;;;;;12.35;3.85;;;;;;;30.61;28.35;98113.72;4485536;32;20589;-84
2022/08/27 06:36:26;;;;;;;11.50;3.72;;;;;;;30.51;28.83;98123.25;4486549;32;20114;-85
2022/08/27 06:38:53;;;;;;;12.88;3.60;;;;;;;30.11;28.43;98129.12;4486591;31;20467;-84
2022/08/27 06:41:21;;;;;;;14.45;3.90;;;;;;;30.34;29.06;98133.06;4485462;32;20151;-84
2022/08/27 06:43:47;;;;;;;10.68;3.45;;;;;;;30.56;28.54;98128.00;4486712;31;20104;-84
2022/08/27 06:46:15;;;;;;;11.40;3.70;;;;;;;30.65;28.98;98126.63;4485412;32;20122;-84
2022/08/27 06:48:43;;;;;;;10.50;3.67;;;;;;;30.80;29.62;98131.66;4486709;31;20367;-85
2022/08/27 06:51:12;;;;;;;12.00;3.87;;;;;;;30.93;29.34;98127.97;4486422;31;20120;-84
2022/08/27 06:53:39;;;;;;;10.57;4.05;;;;;;;30.81;29.13;98127.88;4486423;31;20157;-85
2022/08/27 06:56:04;;;;;;;10.95;3.87;;;;;;;30.78;28.49;98137.31;4486416;31;20147;-85
2022/08/27 06:58:30;;;;;;;11.05;3.80;;;;;;;30.82;28.18;98132.25;4486296;31;20409;-84
2022/08/27 07:00:56;;;;;;;11.05;3.80;;;;;;;30.87;28.50;98139.72;4486139;31;20414;-84
2022/08/27 07:03:21;;;;;;;10.98;3.83;;;;;;;30.26;30.08;98145.03;4486198;31;20460;-85
2022/08/27 07:05:46;;;;;;;11.15;3.62;;;;;;;30.41;30.29;98149.31;4486363;31;20084;-85
2022/08/27 07:08:12;;;;;;;12.20;4.10;;;;;;;30.48;29.66;98141.91;4486334;31;20107;-84
2022/08/27 07:10:38;;;;;;;13.10;3.75;;;;;;;30.56;29.91;98144.31;4486238;31;20139;-85
2022/08/27 07:13:04;;;;;;;12.07;3.85;;;;;;;30.47;29.13;98138.34;4487572;31;20528;-84
2022/08/27 07:15:30;;;;;;;11.25;3.78;;;;;;;30.68;29.25;98147.09;4488045;31;20080;-84
2022/08/27 07:17:55;;;;;;;10.65;3.70;;;;;;;30.77;29.29;98152.00;4486958;32;20080;-84
2022/08/27 07:20:21;;;;;;;10.95;3.90;;;;;;;30.80;29.15;98155.31;4487006;32;20137;-84
2022/08/27 07:22:47;;;;;;;11.20;3.90;;;;;;;31.01;29.11;98156.72;4488225;31;20097;-85
2022/08/27 07:25:18;;;;;;;10.77;3.80;;;;;;;31.07;28.75;98161.22;4488163;31;20081;-85
2022/08/27 07:27:43;;;;;;;12.00;3.92;;;;;;;30.97;29.01;98167.22;4488146;31;20080;-85
2022/08/27 07:30:11;;;;;;;10.18;3.83;;;;;;;31.31;28.18;98164.84;4488212;31;20434;-84
2022/08/27 07:32:38;;;;;;;11.15;3.67;;;;;;;31.53;27.91;98157.81;4488082;32;20451;-85
2022/08/27 07:35:08;;;;;;;11.75;3.78;;;;;;;31.75;28.29;98158.06;4488115;31;20130;-85
2022/08/27 07:37:34;;;;;;;10.77;3.65;;;;;;;31.89;28.14;98164.13;4488194;31;20084;-85
2022/08/27 07:39:59;;;;;;;11.20;4.05;;;;;;;31.84;28.23;98169.44;4488079;31;20096;-85
2022/08/27 07:45:09;;;;;;;11.27;3.85;;;;;;;31.81;28.25;98171.81;4488194;32;20131;-84
2022/08/27 07:47:34;;;;;;;11.07;3.65;;;;;;;31.88;28.25;98169.81;4488044;31;20089;-84
2022/08/27 07:50:00;;;;;;;11.93;3.70;;;;;;;31.99;28.41;98168.12;4488037;32;20126;-84
2022/08/27 07:52:26;;;;;;;12.40;4.00;;;;;;;32.03;28.27;98159.28;4486684;32;20088;-84
2022/08/27 07:54:52;;;;;;;11.57;3.80;;;;;;;32.10;27.86;98159.16;4488067;31;20088;-84
2022/08/27 07:57:17;;;;;;;11.68;3.87;;;;;;;31.92;27.90;98162.81;4486824;32;20102;-85
2022/08/27 07:59:42;;;;;;;12.75;3.92;;;;;;;32.00;27.93;98156.19;4487821;31;20444;-85
2022/08/27 08:02:08;;;;;;;12.30;3.67;;;;;;;32.02;28.38;98151.34;4488027;31;20084;-85
2022/08/27 08:04:34;;;;;;;10.65;3.65;;;;;;;32.10;27.75;98156.44;4487930;31;20111;-85
2022/08/27 08:06:59;;;;;;;10.48;3.58;;;;;;;31.98;28.02;98158.31;4488025;31;20107;-85
2022/08/27 08:09:25;;;;;;;11.50;3.60;;;;;;;31.81;27.40;98161.72;4487885;31;20122;-85
2022/08/27 08:11:51;;;;;;;12.23;4.35;;;;;;;31.90;27.73;98160.31;4487853;31;20129;-85
2022/08/27 08:14:17;;;;;;;11.65;3.80;;;;;;;31.88;27.42;98159.72;4486755;32;20220;-85
2022/08/27 08:16:43;;;;;;;15.13;3.87;;;;;;;31.91;27.29;98162.00;4487802;31;20110;-85
2022/08/27 08:19:09;;;;;;;12.65;3.90;;;;;;;31.94;26.79;98166.94;4487841;31;20116;-85
2022/08/27 08:21:35;;;;;;;11.32;3.80;;;;;;;31.87;26.80;98165.41;4487932;31;20114;-85
2022/08/27 08:24:01;;;;;;;11.77;3.80;;;;;;;31.22;27.66;98174.41;4486000;32;20081;-85
2022/08/27 08:26:27;;;;;;;11.65;3.95;;;;;;;31.34;27.61;98175.25;4487823;31;20092;-85
2022/08/27 08:28:53;;;;;;;10.48;3.62;;;;;;;31.55;27.92;98182.09;4487769;31;20502;-85
2022/08/27 08:31:18;;;;;;;12.15;3.90;;;;;;;31.71;27.42;98169.66;4487807;31;20093;-85
2022/08/27 08:33:46;;;;;;;10.95;3.83;;;;;;;31.81;27.37;98172.63;4487755;31;20106;-85
2022/08/27 08:36:14;;;;;;;11.68;3.80;;;;;;;31.84;27.57;98172.16;4487690;32;20095;-85
2022/08/27 08:38:40;;;;;;;12.80;4.07;;;;;;;31.76;27.52;98169.81;4487682;31;20107;-85
2022/08/27 08:41:24;;;;;;;11.80;3.83;;;;;;;31.81;27.83;98169.91;4486840;32;20591;-86
2022/08/27 08:43:50;;;;;;;14.48;3.87;;;;;;;31.72;26.63;98166.72;4486862;32;20170;-85
2022/08/27 08:46:38;;;;;;;10.18;3.70;;;;;;;31.65;26.68;98168.72;4487980;31;20507;-85
2022/08/27 08:49:23;;;;;;;12.55;4.00;;;;;;;31.58;26.94;98178.06;4487949;32;20171;-85
2022/08/27 08:51:52;;;;;;;15.45;4.15;;;;;;;31.56;26.99;98178.28;4486636;32;20093;-85
2022/08/27 08:54:21;;;;;;;14.02;4.50;;;;;;;31.73;27.13;98175.72;4487774;31;20084;-84
2022/08/27 08:57:05;;;;;;;11.95;3.65;;;;;;;31.62;28.16;98179.25;4486762;32;20076;-85
2022/08/27 08:59:37;;;;;;;10.88;3.70;;;;;;;31.90;28.24;98173.13;4487336;32;20100;-85
2022/08/27 09:02:05;;;;;;;11.48;3.87;;;;;;;32.00;27.17;98172.53;4486438;32;20161;-85
2022/08/27 09:04:30;;;;;;;12.52;3.85;;;;;;;31.96;27.29;98166.72;4486357;32;20114;-85
2022/08/27 09:07:12;;;;;;;12.52;4.20;;;;;;;31.90;27.83;98165.75;4487503;31;20158;-85
2022/08/27 09:09:46;;;;;;;11.80;3.80;;;;;;;32.16;27.14;98174.53;4486403;32;20147;-86
2022/08/27 09:12:18;;;;;;;13.02;4.55;;;;;;;32.15;27.90;98159.28;4487540;32;20093;-85
2022/08/27 09:14:53;;;;;;;13.25;4.18;;;;;;;32.13;28.16;98166.88;4487509;31;20083;-85
2022/08/27 09:17:18;;;;;;;12.13;3.72;;;;;;;32.21;27.77;98162.94;4487559;31;20084;-85
2022/08/27 09:19:44;;;;;;;11.23;3.60;;;;;;;32.35;27.69;98156.16;4487468;31;20134;-85
2022/08/27 09:22:45;;;;;;;12.82;3.75;;;;;;;32.35;27.78;98156.16;4487519;31;20115;-85
2022/08/27 09:25:26;;;;;;;11.20;3.80;;;;;;;32.24;27.16;98155.13;4486264;32;20376;-85
2022/08/27 09:27:59;;;;;;;9.93;3.55;;;;;;;32.05;27.89;98148.16;4486469;32;20080;-85
2022/08/27 09:30:30;;;;;;;11.82;3.42;;;;;;;32.60;26.64;98153.16;4487625;31;20100;-85
2022/08/27 09:33:01;;;;;;;12.70;4.00;;;;;;;32.68;26.49;98146.50;4487315;31;20500;-85
2022/08/27 09:35:30;;;;;;;9.95;3.45;;;;;;;32.57;26.69;98148.19;4487346;31;20088;-85
2022/08/27 09:37:56;;;;;;;11.60;3.53;;;;;;;32.56;26.32;98151.13;4486187;32;20424;-85
2022/08/27 09:40:31;;;;;;;10.88;4.35;;;;;;;32.11;25.93;98150.75;4486089;32;20127;-85
2022/08/27 09:43:23;;;;;;;13.93;3.60;;;;;;;32.31;26.03;98142.16;4487524;31;20088;-85
2022/08/27 09:45:56;;;;;;;13.13;3.62;;;;;;;32.74;26.01;98133.78;4478080;32;20092;-85
2022/08/27 09:48:26;;;;;;;13.48;3.60;;;;;;;32.68;26.03;98144.62;4487329;31;20076;-85
2022/08/27 09:50:57;;;;;;;10.48;3.30;;;;;;;32.95;25.84;98140.47;4487216;31;20093;-85
2022/08/27 09:53:43;;;;;;;12.98;3.80;;;;;;;33.02;25.49;98144.69;4472903;32;20381;-85
2022/08/27 09:56:20;;;;;;;10.70;3.58;;;;;;;33.05;24.52;98144.22;4487290;31;20100;-85
2022/08/27 09:58:52;;;;;;;12.77;3.80;;;;;;;32.90;24.31;98135.75;4487143;32;20457;-84
2022/08/27 10:01:24;;;;;;;9.50;3.60;;;;;;;32.88;24.33;98137.88;4486031;32;20461;-85
2022/08/27 10:04:11;;;;;;;11.80;3.20;;;;;;;32.96;24.30;98140.22;4487073;31;20427;-85
2022/08/27 10:06:44;;;;;;;10.60;2.92;;;;;;;33.07;23.57;98131.16;4486082;32;20600;-85
2022/08/27 10:09:29;;;;;;;13.85;3.40;;;;;;;32.93;23.62;98140.69;4485947;32;20113;-85
2022/08/27 10:12:06;;;;;;;12.43;3.28;;;;;;;33.04;23.81;98139.00;4485816;32;20148;-85
2022/08/27 10:14:43;;;;;;;11.90;3.12;;;;;;;32.84;23.29;98137.53;4485983;32;20100;-86
2022/08/27 10:17:27;;;;;;;13.50;3.10;;;;;;;33.05;23.67;98133.28;4485913;32;20167;-85
2022/08/27 10:20:11;;;;;;;9.63;2.97;;;;;;;33.12;22.86;98141.34;4487015;32;20092;-85
2022/08/27 10:23:00;;;;;;;9.48;2.92;;;;;;;33.12;22.52;98133.16;4485800;32;20451;-85
2022/08/27 10:25:57;;;;;;;13.18;2.97;;;;;;;33.10;22.89;98136.13;4487056;31;20110;-86
2022/08/27 10:28:57;;;;;;;13.43;4.07;;;;;;;33.08;23.00;98135.50;4487009;31;20084;-85
2022/08/27 10:32:00;;;;;;;15.25;3.17;;;;;;;33.02;23.13;98138.41;4486864;32;20097;-85
2022/08/27 10:34:40;;;;;;;13.25;3.42;;;;;;;32.26;23.68;98142.09;4487173;31;20104;-85
2022/08/27 10:37:12;;;;;;;9.43;3.17;;;;;;;32.75;23.54;98143.63;4486006;32;20172;-85
2022/08/27 10:39:38;;;;;;;11.30;3.30;;;;;;;32.83;23.08;98143.25;4486971;32;20440;-85
2022/08/27 10:42:38;;;;;;;11.48;2.95;;;;;;;32.59;23.94;98140.59;4486900;31;20092;-85
2022/08/27 10:45:16;;;;;;;10.60;3.40;;;;;;;32.89;23.75;98142.25;4482069;32;20696;-85
2022/08/27 10:48:08;;;;;;;11.15;3.47;;;;;;;32.90;23.26;98141.19;4486083;31;20080;-85
2022/08/27 10:50:41;;;;;;;9.23;3.08;;;;;;;32.97;23.16;98130.94;4486670;32;20106;-86
2022/08/27 10:53:10;;;;;;;11.00;3.33;;;;;;;32.76;23.74;98129.75;4485591;32;20087;-85
2022/08/27 10:55:50;;;;;;;10.55;3.35;;;;;;;32.63;23.82;98130.03;4485336;32;20108;-85
2022/08/27 10:58:51;;;;;;;8.48;2.78;;;;;;;32.90;23.87;98139.28;4485629;32;20096;-85
2022/08/27 11:01:25;;;;;;;9.55;2.90;;;;;;;33.08;23.60;98127.31;4486686;31;20106;-85
2022/08/27 11:03:57;;;;;;;12.35;2.90;;;;;;;32.43;23.58;98139.44;4486580;32;20076;-86
2022/08/27 11:06:45;;;;;;;11.55;2.72;;;;;;;32.42;24.58;98126.87;4486640;31;20101;-85
2022/08/27 11:09:21;;;;;;;9.50;2.80;;;;;;;32.54;24.03;98126.81;4479889;32;20548;-85
2022/08/27 11:11:56;;;;;;;10.30;3.20;;;;;;;32.52;23.94;98124.34;4485154;32;20135;-85
2022/08/27 11:14:36;;;;;;;12.48;3.45;;;;;;;32.71;23.65;98119.56;4485207;32;20498;-85
2022/08/27 11:17:14;;;;;;;10.00;3.00;;;;;;;32.92;23.43;98123.50;4486407;31;20096;-85
2022/08/27 11:20:00;;;;;;;12.25;3.40;;;;;;;32.58;24.38;98122.56;4486443;32;20115;-85
2022/08/27 11:22:33;;;;;;;10.63;3.37;;;;;;;32.97;23.72;98120.03;4485409;32;20084;-85
2022/08/27 11:25:07;;;;;;;13.30;3.20;;;;;;;32.64;23.46;98123.50;4486199;31;20111;-85
2022/08/27 11:27:33;;;;;;;10.82;2.87;;;;;;;32.51;24.16;98119.16;4486215;32;20088;-85
2022/08/27 11:30:09;;;;;;;9.23;3.17;;;;;;;32.70;24.48;98120.66;4484997;32;20373;-85
2022/08/27 11:32:45;;;;;;;15.82;3.20;;;;;;;32.76;24.35;98115.28;4485199;32;20633;-85
2022/08/27 11:35:29;;;;;;;13.82;3.60;;;;;;;32.81;24.37;98109.94;4485235;32;20088;-85
2022/08/27 11:38:11;;;;;;;10.68;3.25;;;;;;;33.18;23.82;98106.78;4486188;31;20118;-85
2022/08/27 11:40:58;;;;;;;10.90;3.53;;;;;;;33.27;23.45;98105.31;4484777;32;20169;-85
2022/08/27 11:43:26;;;;;;;11.52;3.28;;;;;;;33.04;23.07;98107.06;4484756;32;20106;-85
2022/08/27 11:45:55;;;;;;;11.12;3.50;;;;;;;33.00;23.24;98105.91;4484743;32;20080;-85
2022/08/27 11:48:21;;;;;;;11.68;3.33;;;;;;;33.19;23.33;98105.72;4484705;32;20455;-85